Time,TemperatureF,DewpointF,PressureIn,WindDirection,WindDirectionDegrees,WindSpeedMPH,WindSpeedGustMPH,Humidity,HourlyPrecipIn,Conditions,Clouds,dailyrainin,SoftwareType,DateUTC
2013-07-16 00:00:00,77.0,76.4,29.40,SSW,202,0.0,0.0,98,0.00,,,0.00,Weather View 32 v70,2013-07-16 04:00:00,
2013-07-16 00:01:00,77.0,76.4,29.40,SSW,202,0.0,0.0,98,0.00,,,0.00,Weather View 32 v70,2013-07-16 04:01:00,
2013-07-16 00:06:00,76.0,75.4,29.39,SSW,202,0.0,0.0,98,0.00,,,0.00,Weather View 32 v70,2013-07-16 04:06:00,
2013-07-16 00:11:00,76.0,75.4,29.42,SSW,202,0.0,0.0,98,0.00,,,0.00,Weather View 32 v70,2013-07-16 04:11:00,
2013-07-16 00:16:00,76.0,75.4,29.39,SSW,202,0.0,0.0,98,0.00,,,0.00,Weather View 32 v70,2013-07-16 04:16:00,
2013-07-16 00:21:00,76.0,75.4,29.39,SSW,202,0.0,0.0,98,0.00,,,0.00,Weather View 32 v70,2013-07-16 04:21:00,
2013-07-16 00:26:00,76.0,75.4,29.40,SSW,202,0.0,0.0,98,0.00,,,0.00,Weather View 32 v70,2013-07-16 04:26:00,
2013-07-16 00:31:00,76.0,75.4,29.40,SSW,202,0.0,0.0,98,0.00,,,0.00,Weather View 32 v70,2013-07-16 04:31:00,
2013-07-16 00:36:00,76.0,75.4,29.39,SSW,202,0.0,0.0,98,0.00,,,0.00,Weather View 32 v70,2013-07-16 04:36:00,
2013-07-16 00:41:00,76.0,75.4,29.40,SSW,202,0.0,0.0,98,0.00,,,0.00,Weather View 32 v70,2013-07-16 04:41:00,
2013-07-16 00:46:00,76.0,75.4,29.39,SSW,202,0.0,0.0,98,0.00,,,0.00,Weather View 32 v70,2013-07-16 04:46:00,
2013-07-16 00:47:00,76.0,75.4,29.39,SSW,202,0.0,0.0,98,0.00,,,0.00,Weather View 32 v70,2013-07-16 04:47:00,
2013-07-16 01:40:00,75.0,74.7,29.38,SSW,202,0.0,0.0,99,0.00,,,0.00,Weather View 32 v70,2013-07-16 05:40:00,
2013-07-16 06:37:00,75.0,74.1,29.39,SSW,202,0.0,0.0,97,0.00,,,0.00,Weather View 32 v70,2013-07-16 10:37:00,
2013-07-16 06:42:00,75.0,74.1,29.39,SSW,202,0.0,0.0,97,0.00,,,0.00,Weather View 32 v70,2013-07-16 10:42:00,
2013-07-16 06:47:00,75.0,74.1,29.39,SSW,202,0.0,0.0,97,0.00,,,0.00,Weather View 32 v70,2013-07-16 10:47:00,
2013-07-16 06:52:00,75.0,74.1,29.40,SSW,202,0.0,0.0,97,0.00,,,0.00,Weather View 32 v70,2013-07-16 10:52:00,
2013-07-16 06:57:00,75.0,74.1,29.40,NW,315,0.0,0.0,97,0.00,,,0.00,Weather View 32 v70,2013-07-16 10:57:00,
2013-07-16 07:02:00,75.0,74.1,29.40,NNE,22,0.0,0.0,97,0.00,,,0.00,Weather View 32 v70,2013-07-16 11:02:00,
2013-07-16 07:07:00,76.0,75.4,29.40,NNE,22,0.0,0.0,98,-0.01,,,0.00,Weather View 32 v70,2013-07-16 11:07:00,
2013-07-16 07:12:00,76.0,75.1,29.40,NNW,337,0.0,0.0,97,-0.01,,,0.00,Weather View 32 v70,2013-07-16 11:12:00,
2013-07-16 07:17:00,77.0,76.1,29.40,NNE,22,0.0,4.0,97,-0.01,,,0.00,Weather View 32 v70,2013-07-16 11:17:00,
2013-07-16 07:22:00,77.0,76.4,29.40,NW,315,0.0,4.0,98,-0.01,,,0.00,Weather View 32 v70,2013-07-16 11:22:00,
2013-07-16 07:27:00,78.0,77.4,29.40,WNW,292,0.0,4.0,98,-0.01,,,0.00,Weather View 32 v70,2013-07-16 11:27:00,
2013-07-16 07:32:00,78.0,77.1,29.40,North,360,0.0,4.0,97,-0.01,,,0.00,Weather View 32 v70,2013-07-16 11:32:00,
2013-07-16 07:37:00,79.0,77.8,29.41,North,360,0.0,4.0,96,0.00,,,0.00,Weather View 32 v70,2013-07-16 11:37:00,
2013-07-16 07:42:00,79.0,77.4,29.41,NW,315,0.0,4.0,95,0.00,,,0.00,Weather View 32 v70,2013-07-16 11:42:00,
2013-07-16 07:47:00,80.0,77.5,29.41,WSW,247,0.0,4.0,92,0.00,,,0.00,Weather View 32 v70,2013-07-16 11:47:00,
2013-07-16 07:52:00,80.0,76.1,29.41,WSW,247,0.0,4.0,88,0.00,,,0.00,Weather View 32 v70,2013-07-16 11:52:00,
2013-07-16 07:57:00,81.0,76.7,29.41,WSW,247,0.0,4.0,87,0.00,,,0.00,Weather View 32 v70,2013-07-16 11:57:00,
2013-07-16 08:02:00,81.0,76.0,29.41,WSW,247,0.0,4.0,85,0.00,,,0.00,Weather View 32 v70,2013-07-16 12:02:00,
2013-07-16 08:07:00,81.0,76.4,29.41,WSW,247,0.0,4.0,86,0.00,,,0.00,Weather View 32 v70,2013-07-16 12:07:00,
2013-07-16 08:12:00,81.0,77.8,29.42,WSW,247,0.0,4.0,90,0.00,,,0.00,Weather View 32 v70,2013-07-16 12:12:00,
2013-07-16 08:17:00,81.0,77.1,29.41,WSW,247,0.0,4.0,88,0.00,,,0.00,Weather View 32 v70,2013-07-16 12:17:00,
2013-07-16 08:22:00,80.0,76.1,29.41,WSW,247,0.0,3.0,88,0.00,,,0.00,Weather View 32 v70,2013-07-16 12:22:00,
2013-07-16 08:27:00,81.0,77.8,29.41,WSW,247,0.0,3.0,90,0.00,,,0.00,Weather View 32 v70,2013-07-16 12:27:00,
2013-07-16 08:32:00,80.0,76.1,29.41,WSW,247,0.0,2.0,88,0.00,,,0.00,Weather View 32 v70,2013-07-16 12:32:00,
2013-07-16 08:37:00,80.0,76.4,29.41,WSW,247,0.0,0.0,89,0.00,,,0.00,Weather View 32 v70,2013-07-16 12:37:00,
2013-07-16 08:42:00,80.0,76.8,29.42,SW,225,0.0,0.0,90,0.00,,,0.00,Weather View 32 v70,2013-07-16 12:42:00,
2013-07-16 08:47:00,80.0,76.8,29.41,SW,225,0.0,0.0,90,0.00,,,0.00,Weather View 32 v70,2013-07-16 12:47:00,
2013-07-16 08:52:00,80.0,77.5,29.42,SW,225,0.0,0.0,92,0.00,,,0.00,Weather View 32 v70,2013-07-16 12:52:00,
2013-07-16 08:57:00,81.0,78.4,29.41,SW,225,0.0,0.0,92,0.00,,,0.00,Weather View 32 v70,2013-07-16 12:57:00,
2013-07-16 09:02:00,81.0,79.1,29.42,SW,225,0.0,0.0,94,0.00,,,0.00,Weather View 32 v70,2013-07-16 13:02:00,
2013-07-16 09:07:00,82.0,78.4,29.41,SW,225,0.0,0.0,89,0.00,,,0.00,Weather View 32 v70,2013-07-16 13:07:00,
2013-07-16 13:35:00,93.0,66.4,29.40,NNW,337,0.0,0.0,42,0.00,,,0.00,Weather View 32 v70,2013-07-16 17:35:00,
2013-07-16 14:42:00,94.0,68.0,29.40,NNE,22,0.0,0.0,43,0.00,,,0.00,Weather View 32 v70,2013-07-16 18:42:00,
2013-07-16 14:47:00,95.0,68.2,29.40,ENE,67,0.0,0.0,42,0.00,,,0.00,Weather View 32 v70,2013-07-16 18:47:00,
2013-07-16 14:52:00,94.0,65.9,29.40,ENE,67,0.0,0.0,40,0.00,,,0.00,Weather View 32 v70,2013-07-16 18:52:00,
2013-07-16 14:57:00,93.0,66.4,29.40,NNW,337,0.0,0.0,42,0.00,,,0.00,Weather View 32 v70,2013-07-16 18:57:00,
2013-07-16 15:02:00,93.0,67.8,29.45,North,360,0.0,0.0,44,0.00,,,0.00,Weather View 32 v70,2013-07-16 19:02:00,
2013-07-16 15:07:00,94.0,65.2,29.40,NE,45,0.0,0.0,39,0.00,,,0.00,Weather View 32 v70,2013-07-16 19:07:00,
2013-07-16 15:12:00,93.0,66.4,29.40,NNW,337,0.0,0.0,42,0.00,,,0.00,Weather View 32 v70,2013-07-16 19:12:00,
2013-07-16 15:17:00,92.0,66.9,29.40,NNW,337,0.0,0.0,44,0.00,,,0.00,Weather View 32 v70,2013-07-16 19:17:00,
2013-07-16 15:22:00,92.0,65.5,29.39,NNW,337,0.0,9.0,42,0.00,,,0.00,Weather View 32 v70,2013-07-16 19:22:00,
2013-07-16 15:27:00,93.0,65.7,29.39,NNE,22,0.0,9.0,41,0.00,,,0.00,Weather View 32 v70,2013-07-16 19:27:00,
2013-07-16 15:32:00,94.0,65.9,29.40,NW,315,0.0,9.0,40,0.00,,,0.00,Weather View 32 v70,2013-07-16 19:32:00,
2013-07-16 15:37:00,95.0,66.0,29.39,NE,45,0.0,9.0,39,0.00,,,0.00,Weather View 32 v70,2013-07-16 19:37:00,
2013-07-16 15:42:00,94.0,64.4,29.39,ENE,67,0.0,9.0,38,0.00,,,0.00,Weather View 32 v70,2013-07-16 19:42:00,
2013-07-16 15:47:00,94.0,65.9,29.39,North,360,0.0,9.0,40,0.00,,,0.00,Weather View 32 v70,2013-07-16 19:47:00,
2013-07-16 15:52:00,95.0,66.8,29.39,ENE,67,0.0,9.0,40,0.00,,,0.00,Weather View 32 v70,2013-07-16 19:52:00,
2013-07-16 15:57:00,95.0,65.3,29.38,NNE,22,0.0,9.0,38,0.00,,,0.00,Weather View 32 v70,2013-07-16 19:57:00,
2013-07-16 16:02:00,93.0,65.0,29.39,NNW,337,0.0,9.0,40,0.00,,,0.00,Weather View 32 v70,2013-07-16 20:02:00,
2013-07-16 16:07:00,94.0,65.9,29.39,NE,45,0.0,9.0,40,0.00,,,0.00,Weather View 32 v70,2013-07-16 20:07:00,
2013-07-16 16:12:00,94.0,65.9,29.44,NE,45,0.0,9.0,40,0.00,,,0.00,Weather View 32 v70,2013-07-16 20:12:00,
2013-07-16 16:17:00,94.0,62.1,29.39,North,360,0.0,9.0,35,0.00,,,0.00,Weather View 32 v70,2013-07-16 20:17:00,
2013-07-16 16:22:00,94.0,62.9,29.39,North,360,0.0,0.0,36,0.00,,,0.00,Weather View 32 v70,2013-07-16 20:22:00,
2013-07-16 16:27:00,94.0,64.4,29.38,North,360,0.0,0.0,38,0.00,,,0.00,Weather View 32 v70,2013-07-16 20:27:00,
2013-07-16 16:32:00,94.0,64.4,29.38,ENE,67,0.0,0.0,38,0.00,,,0.00,Weather View 32 v70,2013-07-16 20:32:00,
2013-07-16 17:36:00,90.0,63.0,29.37,NW,315,5.0,5.0,41,0.00,,,0.00,Weather View 32 v70,2013-07-16 21:36:00,
2013-07-16 17:41:00,91.0,64.6,29.37,WNW,292,0.0,7.0,42,0.00,,,0.00,Weather View 32 v70,2013-07-16 21:41:00,
2013-07-16 17:45:00,91.0,64.6,29.37,ENE,67,0.0,7.0,42,0.00,,,0.00,Weather View 32 v70,2013-07-16 21:45:00,
2013-07-16 19:37:00,89.0,63.5,29.38,NNW,337,2.0,6.0,43,0.00,,,0.00,Weather View 32 v70,2013-07-16 23:37:00,
2013-07-16 19:42:00,88.0,63.3,29.38,NW,315,6.0,7.0,44,0.00,,,0.00,Weather View 32 v70,2013-07-16 23:42:00,
2013-07-16 19:47:00,88.0,63.9,29.38,NW,315,0.0,7.0,45,0.00,,,0.00,Weather View 32 v70,2013-07-16 23:47:00,
2013-07-16 19:52:00,87.0,63.6,29.38,NW,315,2.0,7.0,46,0.00,,,0.00,Weather View 32 v70,2013-07-16 23:52:00,
2013-07-16 19:57:00,87.0,63.6,29.42,North,360,4.0,7.0,46,0.00,,,0.00,Weather View 32 v70,2013-07-16 23:57:00,
2013-07-16 20:02:00,87.0,63.6,29.38,NNW,337,0.0,7.0,46,0.00,,,0.00,Weather View 32 v70,2013-07-17 00:02:00,
2013-07-16 20:08:00,86.0,63.3,29.38,NNE,22,0.0,7.0,47,0.00,,,0.00,Weather View 32 v70,2013-07-17 00:08:00,
2013-07-16 20:13:00,86.0,63.9,29.38,North,360,0.0,7.0,48,0.00,,,0.00,Weather View 32 v70,2013-07-17 00:13:00,
2013-07-16 20:18:00,86.0,63.9,29.38,NNW,337,0.0,7.0,48,0.00,,,0.00,Weather View 32 v70,2013-07-17 00:18:00,
2013-07-16 20:23:00,86.0,64.5,29.38,North,360,0.0,7.0,49,0.00,,,0.00,Weather View 32 v70,2013-07-17 00:23:00,
2013-07-16 20:28:00,85.0,63.6,29.38,North,360,0.0,7.0,49,0.00,,,0.00,Weather View 32 v70,2013-07-17 00:28:00,
2013-07-16 20:33:00,85.0,64.8,29.38,North,360,0.0,7.0,51,0.00,,,0.00,Weather View 32 v70,2013-07-17 00:33:00,
2013-07-16 20:38:00,84.0,63.9,29.38,North,360,0.0,7.0,51,0.00,,,0.00,Weather View 32 v70,2013-07-17 00:38:00,
2013-07-16 20:43:00,84.0,65.0,29.38,North,360,0.0,7.0,53,0.00,,,0.00,Weather View 32 v70,2013-07-17 00:43:00,
2013-07-16 20:48:00,83.0,64.6,29.37,North,360,0.0,7.0,54,0.00,,,0.00,Weather View 32 v70,2013-07-17 00:48:00,
2013-07-16 20:53:00,83.0,64.6,29.38,North,360,0.0,5.0,54,0.00,,,0.00,Weather View 32 v70,2013-07-17 00:53:00,
2013-07-16 20:58:00,82.0,64.7,29.38,North,360,0.0,5.0,56,0.00,,,0.00,Weather View 32 v70,2013-07-17 00:58:00,
2013-07-16 21:03:00,82.0,65.2,29.38,North,360,0.0,5.0,57,0.00,,,0.00,Weather View 32 v70,2013-07-17 01:03:00,
2013-07-16 21:08:00,81.0,65.3,29.41,North,360,0.0,5.0,59,0.00,,,0.00,Weather View 32 v70,2013-07-17 01:08:00,
2013-07-16 21:13:00,81.0,65.8,29.38,North,360,0.0,4.0,60,0.00,,,0.00,Weather View 32 v70,2013-07-17 01:13:00,
2013-07-16 21:18:00,81.0,66.2,29.37,North,360,0.0,0.0,61,0.00,,,0.00,Weather View 32 v70,2013-07-17 01:18:00,
2013-07-16 21:23:00,80.0,65.8,29.38,North,360,0.0,0.0,62,0.00,,,0.00,Weather View 32 v70,2013-07-17 01:23:00,
2013-07-16 21:28:00,80.0,65.8,29.37,North,360,0.0,0.0,62,0.00,,,0.00,Weather View 32 v70,2013-07-17 01:28:00,
2013-07-16 21:33:00,79.0,65.7,29.38,North,360,0.0,0.0,64,0.00,,,0.00,Weather View 32 v70,2013-07-17 01:33:00,
2013-07-16 21:38:00,79.0,66.6,29.38,North,360,0.0,0.0,66,0.00,,,0.00,Weather View 32 v70,2013-07-17 01:38:00,
2013-07-16 21:43:00,79.0,66.6,29.38,North,360,0.0,0.0,66,0.00,,,0.00,Weather View 32 v70,2013-07-17 01:43:00,
2013-07-16 21:48:00,79.0,67.1,29.38,North,360,0.0,0.0,67,0.00,,,0.00,Weather View 32 v70,2013-07-17 01:48:00,
2013-07-16 21:53:00,79.0,67.9,29.38,North,360,0.0,0.0,69,0.00,,,0.00,Weather View 32 v70,2013-07-17 01:53:00,
2013-07-16 21:58:00,78.0,67.4,29.38,North,360,0.0,0.0,70,0.00,,,0.00,Weather View 32 v70,2013-07-17 01:58:00,
2013-07-16 22:03:00,78.0,68.2,29.38,North,360,0.0,0.0,72,0.00,,,0.00,Weather View 32 v70,2013-07-17 02:03:00,
2013-07-16 22:08:00,78.0,68.2,29.40,North,360,0.0,0.0,72,0.00,,,0.00,Weather View 32 v70,2013-07-17 02:08:00,
2013-07-16 22:13:00,78.0,68.6,29.38,North,360,0.0,0.0,73,0.00,,,0.00,Weather View 32 v70,2013-07-17 02:13:00,
2013-07-16 22:18:00,77.0,68.8,29.38,North,360,0.0,0.0,76,0.00,,,0.00,Weather View 32 v70,2013-07-17 02:18:00,
2013-07-16 22:23:00,77.0,70.0,29.38,North,360,0.0,0.0,79,0.00,,,0.00,Weather View 32 v70,2013-07-17 02:23:00,
2013-07-16 22:28:00,77.0,70.7,29.38,North,360,0.0,0.0,81,0.00,,,0.00,Weather View 32 v70,2013-07-17 02:28:00,
2013-07-16 22:33:00,77.0,71.1,29.38,North,360,0.0,0.0,82,0.00,,,0.00,Weather View 32 v70,2013-07-17 02:33:00,
2013-07-16 22:38:00,76.0,70.4,29.38,North,360,0.0,0.0,83,0.00,,,0.00,Weather View 32 v70,2013-07-17 02:38:00,
2013-07-16 22:43:00,76.0,71.1,29.38,North,360,0.0,0.0,85,0.00,,,0.00,Weather View 32 v70,2013-07-17 02:43:00,
2013-07-16 22:48:00,76.0,71.1,29.38,North,360,0.0,0.0,85,0.00,,,0.00,Weather View 32 v70,2013-07-17 02:48:00,
2013-07-16 22:53:00,76.0,71.5,29.38,North,360,0.0,0.0,86,0.00,,,0.00,Weather View 32 v70,2013-07-17 02:53:00,
2013-07-16 22:58:00,76.0,71.8,29.38,North,360,0.0,0.0,87,0.00,,,0.00,Weather View 32 v70,2013-07-17 02:58:00,
2013-07-16 23:03:00,76.0,71.8,29.38,North,360,0.0,0.0,87,0.00,,,0.00,Weather View 32 v70,2013-07-17 03:03:00,
2013-07-16 23:08:00,76.0,72.2,29.38,North,360,0.0,0.0,88,0.00,,,0.00,Weather View 32 v70,2013-07-17 03:08:00,
2013-07-16 23:13:00,76.0,72.5,29.38,North,360,0.0,0.0,89,0.00,,,0.00,Weather View 32 v70,2013-07-17 03:13:00,
2013-07-16 23:18:00,76.0,72.8,29.38,North,360,0.0,0.0,90,0.00,,,0.00,Weather View 32 v70,2013-07-17 03:18:00,
2013-07-16 23:23:00,75.0,71.5,29.38,North,360,0.0,0.0,89,0.00,,,0.00,Weather View 32 v70,2013-07-17 03:23:00,
2013-07-16 23:28:00,75.0,71.9,29.38,North,360,0.0,0.0,90,0.00,,,0.00,Weather View 32 v70,2013-07-17 03:28:00,
2013-07-16 23:33:00,75.0,72.2,29.38,North,360,0.0,0.0,91,0.00,,,0.00,Weather View 32 v70,2013-07-17 03:33:00,
2013-07-16 23:38:00,75.0,72.2,29.38,North,360,0.0,0.0,91,0.00,,,0.00,Weather View 32 v70,2013-07-17 03:38:00,
2013-07-16 23:43:00,75.0,72.5,29.38,North,360,0.0,0.0,92,0.00,,,0.00,Weather View 32 v70,2013-07-17 03:43:00,
2013-07-16 23:48:00,75.0,72.8,29.38,North,360,0.0,0.0,93,0.00,,,0.00,Weather View 32 v70,2013-07-17 03:48:00,
2013-07-16 23:53:00,75.0,73.1,29.41,North,360,0.0,0.0,94,0.00,,,0.00,Weather View 32 v70,2013-07-17 03:53:00,
2013-07-16 23:58:00,75.0,73.5,29.38,North,360,0.0,0.0,95,0.00,,,0.00,Weather View 32 v70,2013-07-17 03:58:00,